createdAt,value
2023-04-22T00:02:02.917Z,13.66
2023-04-22T00:04:30.089Z,13.62
2023-04-22T00:06:56.901Z,13.68
2023-04-22T00:09:28.710Z,13.64
2023-04-22T00:11:57.976Z,13.69
2023-04-22T00:14:24.766Z,13.75
2023-04-22T00:16:53.917Z,13.83
2023-04-22T00:19:21.929Z,13.77
2023-04-22T00:21:53.131Z,13.70
2023-04-22T00:24:22.378Z,13.62
2023-04-22T00:26:51.301Z,13.58
2023-04-22T00:29:18.052Z,13.57
2023-04-22T00:31:47.744Z,13.58
2023-04-22T00:34:18.102Z,13.57
2023-04-22T00:36:47.136Z,13.54
2023-04-22T00:39:14.206Z,13.49
2023-04-22T00:41:40.860Z,13.49
2023-04-22T00:44:13.711Z,13.45
2023-04-22T00:46:42.937Z,13.43
2023-04-22T00:49:09.854Z,13.42
2023-04-22T00:51:36.513Z,13.42
2023-04-22T00:54:06.520Z,13.44
2023-04-22T00:56:33.554Z,13.24
2023-04-22T00:59:00.206Z,13.15
2023-04-22T01:01:29.128Z,13.22
2023-04-22T01:03:58.732Z,13.13
2023-04-22T01:06:26.670Z,13.05
2023-04-22T01:08:53.652Z,13.04
2023-04-22T01:11:21.727Z,13.05
2023-04-22T01:13:48.282Z,12.88
2023-04-22T01:16:15.121Z,12.82
2023-04-22T01:18:44.089Z,12.68
2023-04-22T01:21:11.162Z,12.63
2023-04-22T01:23:38.070Z,12.56
2023-04-22T01:26:04.802Z,12.56
2023-04-22T01:28:31.544Z,12.52
2023-04-22T01:31:00.952Z,12.51
2023-04-22T01:33:30.047Z,12.45
2023-04-22T01:36:03.970Z,12.43
2023-04-22T01:38:33.854Z,12.43
2023-04-22T01:41:04.162Z,12.50
2023-04-22T01:43:31.250Z,12.46
2023-04-22T01:46:00.869Z,12.53
2023-04-22T01:48:30.366Z,12.51
2023-04-22T01:50:59.374Z,12.51
2023-04-22T01:53:31.864Z,12.51
2023-04-22T01:55:58.498Z,12.37
2023-04-22T01:58:25.200Z,12.34
2023-04-22T02:00:54.205Z,12.34
2023-04-22T02:03:23.603Z,12.32
2023-04-22T02:05:52.582Z,12.34
2023-04-22T02:08:22.228Z,12.34
2023-04-22T02:10:48.928Z,12.25
2023-04-22T02:13:15.780Z,11.95
2023-04-22T02:15:42.477Z,11.93
2023-04-22T02:18:10.246Z,11.99
2023-04-22T02:20:39.368Z,11.99
2023-04-22T02:23:06.430Z,11.97
2023-04-22T02:25:33.284Z,11.95
2023-04-22T02:28:02.355Z,11.96
2023-04-22T02:30:34.438Z,12.05
2023-04-22T02:33:01.707Z,12.12
2023-04-22T02:35:30.935Z,12.12
2023-04-22T02:37:59.699Z,12.13
2023-04-22T02:40:26.825Z,12.17
2023-04-22T02:42:53.462Z,12.23
2023-04-22T02:45:24.183Z,12.17
2023-04-22T02:47:52.931Z,12.23
2023-04-22T02:50:19.805Z,12.24
2023-04-22T02:52:51.474Z,12.24
2023-04-22T02:55:24.680Z,12.24
2023-04-22T02:57:54.351Z,12.27
2023-04-22T03:00:21.469Z,12.27
2023-04-22T03:02:48.229Z,12.23
2023-04-22T03:05:17.129Z,12.26
2023-04-22T03:07:45.162Z,12.24
2023-04-22T03:10:12.069Z,12.24
2023-04-22T03:12:43.942Z,12.17
2023-04-22T03:15:13.753Z,12.13
2023-04-22T03:17:40.716Z,12.11
2023-04-22T03:20:11.153Z,12.12
2023-04-22T03:22:37.871Z,12.06
2023-04-22T03:25:08.282Z,12.08
2023-04-22T03:27:35.028Z,12.13
2023-04-22T03:30:02.154Z,12.08
2023-04-22T03:32:34.257Z,12.13
2023-04-22T03:35:24.780Z,12.08
2023-04-22T03:37:59.757Z,12.07
2023-04-22T03:40:31.336Z,11.97
2023-04-22T03:43:03.942Z,11.93
2023-04-22T03:45:34.902Z,11.88
2023-04-22T03:48:19.124Z,11.80
2023-04-22T03:50:49.134Z,11.65
2023-04-22T03:53:16.653Z,11.71
2023-04-22T03:55:46.676Z,11.61
2023-04-22T03:58:14.949Z,11.58
2023-04-22T04:00:42.113Z,11.61
2023-04-22T04:03:15.254Z,11.69
2023-04-22T04:05:45.604Z,11.75
2023-04-22T04:08:14.711Z,11.71
2023-04-22T04:10:42.626Z,11.70
2023-04-22T04:13:15.551Z,11.73
2023-04-22T04:16:11.249Z,11.77
2023-04-22T04:18:40.798Z,11.73
2023-04-22T04:21:08.188Z,11.69
2023-04-22T04:23:39.307Z,11.63
2023-04-22T04:26:06.027Z,11.64
2023-04-22T04:28:37.111Z,11.68
2023-04-22T04:31:06.023Z,11.70
2023-04-22T04:33:37.148Z,11.66
2023-04-22T04:36:04.363Z,11.69
2023-04-22T04:38:34.285Z,11.77
2023-04-22T04:41:01.829Z,11.89
2023-04-22T04:43:29.501Z,11.95
2023-04-22T04:46:08.430Z,11.97
2023-04-22T04:48:37.240Z,12.04
2023-04-22T04:51:11.705Z,12.16
2023-04-22T04:53:48.538Z,12.13
2023-04-22T04:56:15.592Z,12.07
2023-04-22T04:58:47.733Z,12.14
2023-04-22T05:01:26.212Z,12.11
2023-04-22T05:04:00.710Z,12.03
2023-04-22T05:06:29.251Z,11.97
2023-04-22T05:09:04.417Z,12.01
2023-04-22T05:11:31.278Z,12.09
2023-04-22T05:14:02.766Z,12.15
2023-04-22T05:16:36.410Z,12.25
2023-04-22T05:19:03.914Z,12.35
2023-04-22T05:21:31.549Z,12.41
2023-04-22T05:24:01.375Z,12.47
2023-04-22T05:26:31.171Z,12.57
2023-04-22T05:28:58.200Z,12.64
2023-04-22T05:31:25.170Z,12.74
2023-04-22T05:33:51.904Z,12.80
2023-04-22T05:36:18.710Z,12.85
2023-04-22T05:38:49.665Z,12.92
2023-04-22T05:41:16.883Z,13.05
2023-04-22T05:43:46.486Z,13.19
2023-04-22T05:46:16.723Z,13.33
2023-04-22T05:48:44.814Z,13.31
2023-04-22T05:51:31.402Z,13.30
2023-04-22T05:53:57.987Z,13.30
2023-04-22T05:56:24.668Z,13.23
2023-04-22T05:58:51.515Z,13.19
2023-04-22T06:01:21.876Z,13.13
2023-04-22T06:03:57.422Z,13.03
2023-04-22T06:06:26.034Z,12.94
2023-04-22T06:08:55.201Z,12.94
2023-04-22T06:11:24.424Z,12.85
2023-04-22T06:13:51.345Z,12.89
2023-04-22T06:16:23.770Z,12.93
2023-04-22T06:18:50.587Z,13.08
2023-04-22T06:21:22.314Z,13.15
2023-04-22T06:23:52.596Z,13.17
2023-04-22T06:26:21.550Z,13.28
2023-04-22T06:28:48.283Z,13.25
2023-04-22T06:31:19.092Z,13.31
2023-04-22T06:33:47.653Z,13.33
2023-04-22T06:36:14.677Z,13.29
2023-04-22T06:38:45.779Z,13.25
2023-04-22T06:41:36.233Z,13.27
2023-04-22T06:44:11.313Z,13.33
2023-04-22T06:47:06.150Z,13.45
2023-04-22T06:49:55.643Z,13.65
2023-04-22T06:52:23.971Z,13.88
2023-04-22T06:54:56.132Z,14.01
2023-04-22T06:57:22.896Z,14.20
2023-04-22T06:59:52.022Z,14.36
2023-04-22T07:02:21.732Z,14.50
2023-04-22T07:04:50.841Z,14.58
2023-04-22T07:07:17.556Z,14.68
2023-04-22T07:09:49.161Z,14.81
2023-04-22T07:12:15.935Z,14.97
2023-04-22T07:14:43.498Z,15.13
2023-04-22T07:17:11.098Z,15.33
2023-04-22T07:19:38.216Z,15.49
2023-04-22T07:22:07.557Z,15.61
2023-04-22T07:24:34.243Z,15.77
2023-04-22T07:27:02.583Z,15.89
2023-04-22T07:29:31.741Z,16.01
2023-04-22T07:32:01.535Z,16.15
2023-04-22T07:34:30.705Z,16.27
2023-04-22T07:36:59.800Z,16.38
2023-04-22T07:39:28.797Z,16.49
2023-04-22T07:42:00.502Z,16.61
2023-04-22T07:44:27.200Z,16.75
2023-04-22T07:46:54.135Z,16.80
2023-04-22T07:49:24.080Z,16.84
2023-04-22T07:51:53.462Z,16.71
2023-04-22T07:54:22.432Z,16.77
2023-04-22T07:56:49.392Z,16.77
2023-04-22T07:59:20.928Z,16.80
2023-04-22T08:01:50.521Z,16.78
2023-04-22T08:04:17.903Z,16.81
2023-04-22T08:06:44.732Z,16.93
2023-04-22T08:09:11.494Z,17.13
2023-04-22T08:11:38.350Z,17.24
2023-04-22T08:14:07.132Z,17.30
2023-04-22T08:16:33.854Z,17.35
2023-04-22T08:19:03.314Z,17.41
2023-04-22T08:21:30.079Z,17.39
2023-04-22T08:23:57.046Z,17.54
2023-04-22T08:26:23.669Z,17.58
2023-04-22T08:28:50.420Z,17.73
2023-04-22T08:31:19.561Z,17.88
2023-04-22T08:33:46.441Z,17.98
2023-04-22T08:36:13.078Z,17.95
2023-04-22T08:38:39.694Z,18.01
2023-04-22T08:41:07.139Z,18.09
2023-04-22T08:43:38.814Z,18.31
2023-04-22T08:46:09.942Z,18.46
2023-04-22T08:48:36.865Z,18.52
2023-04-22T08:51:03.726Z,18.61
2023-04-22T08:53:31.252Z,18.65
2023-04-22T08:56:00.449Z,18.80
2023-04-22T08:58:28.302Z,18.92
2023-04-22T09:00:57.318Z,19.03
2023-04-22T09:03:24.079Z,19.25
2023-04-22T09:05:50.700Z,19.43
2023-04-22T09:08:17.248Z,19.58
2023-04-22T09:10:43.861Z,19.58
2023-04-22T09:13:10.655Z,19.83
2023-04-22T09:15:40.210Z,19.80
2023-04-22T09:18:11.018Z,19.84
2023-04-22T09:20:44.126Z,19.77
2023-04-22T09:23:13.397Z,19.70
2023-04-22T09:25:42.431Z,19.96
2023-04-22T09:28:11.769Z,20.21
2023-04-22T09:30:40.776Z,20.27
2023-04-22T09:33:09.892Z,20.39
2023-04-22T09:35:37.129Z,20.60
2023-04-22T09:38:08.077Z,20.77
2023-04-22T09:40:38.022Z,20.79
2023-04-22T09:43:05.939Z,20.82
2023-04-22T09:45:36.499Z,20.85
2023-04-22T09:48:10.455Z,21.17
2023-04-22T09:50:37.909Z,21.03
2023-04-22T09:53:07.618Z,21.13
2023-04-22T09:55:35.720Z,21.18
2023-04-22T09:58:09.692Z,21.17
2023-04-22T10:00:39.430Z,21.06
2023-04-22T10:03:09.737Z,21.41
2023-04-22T10:05:37.919Z,21.86
2023-04-22T10:08:05.382Z,22.17
2023-04-22T10:10:32.676Z,22.40
2023-04-22T10:12:59.791Z,22.48
2023-04-22T10:15:27.138Z,22.65
2023-04-22T10:17:53.864Z,22.57
2023-04-22T10:20:23.015Z,22.64
2023-04-22T10:22:49.677Z,22.64
2023-04-22T10:25:25.846Z,22.44
2023-04-22T10:28:04.820Z,22.38
2023-04-22T10:30:32.163Z,22.66
2023-04-22T10:33:17.405Z,22.95
2023-04-22T10:36:04.130Z,23.37
2023-04-22T10:38:33.286Z,23.38
2023-04-22T10:41:04.706Z,23.68
2023-04-22T10:43:48.945Z,23.79
2023-04-22T10:46:40.410Z,24.19
2023-04-22T10:49:07.687Z,24.43
2023-04-22T10:51:41.095Z,25.00
2023-04-22T10:54:36.977Z,25.50
2023-04-22T10:57:03.714Z,25.70
2023-04-22T10:59:31.140Z,25.80
2023-04-22T11:02:01.914Z,25.68
2023-04-22T11:04:33.981Z,25.46
2023-04-22T11:07:20.531Z,25.46
2023-04-22T11:09:49.367Z,25.16
2023-04-22T11:12:34.800Z,24.94
2023-04-22T11:15:01.805Z,22.92
2023-04-22T11:17:28.452Z,24.46
2023-04-22T11:19:57.912Z,24.48
2023-04-22T11:22:26.843Z,24.66
2023-04-22T11:25:04.009Z,24.79
2023-04-22T11:27:30.707Z,24.80
2023-04-22T11:30:03.518Z,24.69
2023-04-22T11:32:32.752Z,24.07
2023-04-22T11:35:08.610Z,24.19
2023-04-22T11:37:45.291Z,24.07
2023-04-22T11:40:29.417Z,23.46
2023-04-22T11:43:02.600Z,22.73
2023-04-22T11:45:29.901Z,22.29
2023-04-22T11:47:56.695Z,21.99
2023-04-22T11:50:30.634Z,21.66
2023-04-22T11:52:58.442Z,21.80
2023-04-22T11:55:30.543Z,22.28
2023-04-22T11:58:00.465Z,22.90
2023-04-22T12:00:34.237Z,23.33
2023-04-22T12:03:01.958Z,23.71
2023-04-22T12:05:34.869Z,24.00
2023-04-22T12:08:02.639Z,24.49
2023-04-22T12:10:32.226Z,24.74
2023-04-22T12:13:00.191Z,24.95
2023-04-22T12:15:37.271Z,25.21
2023-04-22T12:18:08.977Z,26.11
2023-04-22T12:20:40.019Z,26.44
2023-04-22T12:23:11.781Z,26.49
2023-04-22T12:25:41.140Z,26.99
2023-04-22T12:28:07.781Z,27.29
2023-04-22T12:30:39.347Z,27.90
2023-04-22T12:33:11.622Z,28.45
2023-04-22T12:35:38.205Z,28.83
2023-04-22T12:38:07.318Z,28.80
2023-04-22T12:40:38.980Z,28.92
2023-04-22T12:43:08.587Z,28.34
2023-04-22T12:45:35.695Z,25.77
2023-04-22T12:48:02.443Z,24.35
2023-04-22T12:50:29.127Z,25.04
2023-04-22T12:52:55.819Z,26.00
2023-04-22T12:55:22.706Z,26.35
2023-04-22T12:57:49.753Z,26.61
2023-04-22T13:00:16.978Z,26.04
2023-04-22T13:02:44.336Z,25.48
2023-04-22T13:05:12.271Z,25.82
2023-04-22T13:07:46.757Z,26.34
2023-04-22T13:10:16.496Z,26.86
2023-04-22T13:12:43.679Z,27.28
2023-04-22T13:15:10.939Z,27.56
2023-04-22T13:17:37.732Z,27.24
2023-04-22T13:20:04.833Z,27.33
2023-04-22T13:22:33.963Z,27.59
2023-04-22T13:25:03.257Z,27.34
2023-04-22T13:27:29.887Z,27.28
2023-04-22T13:29:57.049Z,26.98
2023-04-22T13:32:25.871Z,27.06
2023-04-22T13:34:52.748Z,26.59
2023-04-22T13:37:21.350Z,25.79
2023-04-22T13:39:50.963Z,25.51
2023-04-22T13:42:17.687Z,25.48
2023-04-22T13:44:44.254Z,25.70
2023-04-22T13:47:11.563Z,25.70
2023-04-22T13:49:40.955Z,26.12
2023-04-22T13:52:07.963Z,26.70
2023-04-22T13:54:35.956Z,27.45
2023-04-22T13:57:03.808Z,28.74
2023-04-22T13:59:35.148Z,28.31
2023-04-22T14:02:01.722Z,28.00
2023-04-22T14:04:28.421Z,28.25
2023-04-22T14:07:00.043Z,29.50
2023-04-22T14:09:29.653Z,29.76
2023-04-22T14:11:56.843Z,30.31
2023-04-22T14:14:23.405Z,30.24
2023-04-22T14:16:50.217Z,29.70
2023-04-22T14:19:17.074Z,31.21
2023-04-22T14:21:46.259Z,31.40
2023-04-22T14:24:12.913Z,30.90
2023-04-22T14:26:42.573Z,30.50
2023-04-22T14:29:09.339Z,30.47
2023-04-22T14:31:35.949Z,30.67
2023-04-22T14:34:02.589Z,30.64
2023-04-22T14:36:32.071Z,30.70
2023-04-22T14:39:00.899Z,31.46
2023-04-22T14:41:27.578Z,32.27
2023-04-22T14:43:56.740Z,32.16
2023-04-22T14:46:23.658Z,31.67
2023-04-22T14:48:50.375Z,32.33
2023-04-22T14:51:19.163Z,32.13
2023-04-22T14:53:48.202Z,31.56
2023-04-22T14:56:14.746Z,31.48
2023-04-22T14:58:43.835Z,31.37
2023-04-22T15:01:10.815Z,31.12
2023-04-22T15:03:37.598Z,30.75
2023-04-22T15:06:04.516Z,30.43
2023-04-22T15:08:36.465Z,29.46
2023-04-22T15:11:03.188Z,28.97
2023-04-22T15:13:29.761Z,28.63
2023-04-22T15:15:59.195Z,28.75
2023-04-22T15:18:28.639Z,28.77
2023-04-22T15:20:55.332Z,28.49
2023-04-22T15:23:22.084Z,28.49
2023-04-22T15:25:48.641Z,28.52
2023-04-22T15:28:15.363Z,28.40
2023-04-22T15:30:44.402Z,28.12
2023-04-22T15:33:13.457Z,27.70
2023-04-22T15:35:41.398Z,27.44
2023-04-22T15:38:08.353Z,26.56
2023-04-22T15:40:34.954Z,25.65
2023-04-22T15:43:01.898Z,25.28
2023-04-22T15:45:33.013Z,25.73
2023-04-22T15:47:59.668Z,26.24
2023-04-22T15:50:26.446Z,26.31
2023-04-22T15:52:54.522Z,26.35
2023-04-22T15:55:23.516Z,26.26
2023-04-22T15:57:52.451Z,25.97
2023-04-22T16:00:21.419Z,25.50
2023-04-22T16:02:55.324Z,25.32
2023-04-22T16:05:26.726Z,25.36
2023-04-22T16:07:53.655Z,25.58
2023-04-22T16:10:20.465Z,25.68
2023-04-22T16:12:51.929Z,25.57
2023-04-22T16:15:23.579Z,25.54
2023-04-22T16:17:50.255Z,25.38
2023-04-22T16:20:19.724Z,25.31
2023-04-22T16:22:46.790Z,25.21
2023-04-22T16:25:13.487Z,25.19
2023-04-22T16:27:40.168Z,25.36
2023-04-22T16:30:07.124Z,25.64
2023-04-22T16:32:36.282Z,26.04
2023-04-22T16:35:02.908Z,26.07
2023-04-22T16:37:29.575Z,25.80
2023-04-22T16:39:56.341Z,25.70
2023-04-22T16:42:22.956Z,25.57
2023-04-22T16:44:51.760Z,25.71
2023-04-22T16:47:18.682Z,25.81
2023-04-22T16:49:45.416Z,25.82
2023-04-22T16:52:12.260Z,25.87
2023-04-22T16:54:40.807Z,25.82
2023-04-22T16:57:08.296Z,25.78
2023-04-22T16:59:35.135Z,25.70
2023-04-22T17:02:01.942Z,25.32
2023-04-22T17:04:30.949Z,24.93
2023-04-22T17:06:57.619Z,24.48
2023-04-22T17:09:24.459Z,24.10
2023-04-22T17:11:51.039Z,23.75
2023-04-22T17:14:20.183Z,23.40
2023-04-22T17:16:46.791Z,23.13
2023-04-22T17:19:15.760Z,22.92
2023-04-22T17:21:44.826Z,22.78
2023-04-22T17:24:11.536Z,22.61
2023-04-22T17:26:42.917Z,22.48
2023-04-22T17:29:09.591Z,22.24
2023-04-22T17:31:39.337Z,22.07
2023-04-22T17:34:08.933Z,22.05
2023-04-22T17:36:35.644Z,21.95
2023-04-22T17:39:04.734Z,21.87
2023-04-22T17:41:31.321Z,21.77
2023-04-22T17:43:59.188Z,21.64
2023-04-22T17:46:28.456Z,21.46
2023-04-22T17:48:57.129Z,21.31
2023-04-22T17:51:23.846Z,21.24
2023-04-22T17:53:53.200Z,21.06
2023-04-22T17:56:22.279Z,21.01
2023-04-22T17:58:48.936Z,20.87
2023-04-22T18:01:18.054Z,20.71
2023-04-22T18:03:44.846Z,20.52
2023-04-22T18:06:11.776Z,20.42
2023-04-22T18:08:42.837Z,20.36
2023-04-22T18:11:09.426Z,20.28
2023-04-22T18:13:39.062Z,20.22
2023-04-22T18:16:05.876Z,20.12
2023-04-22T18:18:32.543Z,20.03
2023-04-22T18:21:01.600Z,20.00
2023-04-22T18:23:28.668Z,19.91
2023-04-22T18:25:55.882Z,19.82
2023-04-22T18:28:24.905Z,19.79
2023-04-22T18:41:25.467Z,19.45
2023-04-22T18:43:54.431Z,19.44
2023-04-22T18:46:21.110Z,19.40
2023-04-22T18:48:47.682Z,19.27
2023-04-22T18:51:14.307Z,19.23
2023-04-22T18:53:43.430Z,19.17
2023-04-22T18:56:12.536Z,19.10
2023-04-22T18:58:39.506Z,19.05
2023-04-22T19:01:06.558Z,18.97
2023-04-22T19:03:36.518Z,18.88
2023-04-22T19:06:03.361Z,18.80
2023-04-22T19:08:29.925Z,18.81
2023-04-22T19:10:56.514Z,18.84
2023-04-22T19:15:57.713Z,18.71
2023-04-22T19:18:24.787Z,18.68
2023-04-22T19:20:51.529Z,18.65
2023-04-22T19:23:18.240Z,18.61
2023-04-22T19:25:44.902Z,18.54
2023-04-22T19:28:11.883Z,18.51
2023-04-22T19:30:44.297Z,18.53
2023-04-22T19:33:11.541Z,18.48
2023-04-22T19:35:38.196Z,18.39
2023-04-22T19:38:05.341Z,18.35
2023-04-22T19:40:31.912Z,18.24
2023-04-22T19:42:59.550Z,18.18
2023-04-22T19:45:26.809Z,18.09
2023-04-22T19:47:53.920Z,18.13
2023-04-22T19:50:23.173Z,18.11
2023-04-22T19:52:50.492Z,17.94
2023-04-22T19:55:22.432Z,17.85
2023-04-22T19:57:49.105Z,17.69
2023-04-22T20:00:16.205Z,17.51
2023-04-22T20:02:43.201Z,17.43
2023-04-22T20:05:10.497Z,17.39
2023-04-22T20:07:38.209Z,17.38
2023-04-22T20:10:05.750Z,17.39
2023-04-22T20:12:32.624Z,17.45
2023-04-22T20:15:00.107Z,17.51
2023-04-22T20:17:27.273Z,17.52
2023-04-22T20:19:54.522Z,17.54
2023-04-22T20:22:24.848Z,17.60
2023-04-22T20:25:04.116Z,17.57
2023-04-22T20:27:39.704Z,17.32
2023-04-22T20:30:07.350Z,17.17
2023-04-22T20:32:34.147Z,17.18
2023-04-22T20:35:00.955Z,17.05
2023-04-22T20:37:28.623Z,16.83
2023-04-22T20:39:55.647Z,16.73
2023-04-22T20:42:23.033Z,16.59
2023-04-22T20:44:52.288Z,16.45
2023-04-22T20:47:19.501Z,16.41
2023-04-22T20:49:48.526Z,16.35
2023-04-22T20:52:15.263Z,16.43
2023-04-22T20:54:51.226Z,16.51
2023-04-22T20:57:18.826Z,16.46
2023-04-22T20:59:45.473Z,16.53
2023-04-22T21:02:12.833Z,16.58
2023-04-22T21:04:40.202Z,16.57
2023-04-22T21:07:07.870Z,16.53
2023-04-22T21:09:37.314Z,16.54
2023-04-22T21:12:06.727Z,16.60
2023-04-22T21:14:33.469Z,16.64
2023-04-22T21:17:03.583Z,16.64
2023-04-22T21:19:35.763Z,16.58
2023-04-22T21:22:06.394Z,16.57
2023-04-22T21:24:33.707Z,16.63
2023-04-22T21:27:01.375Z,16.62
2023-04-22T21:29:28.881Z,16.61
2023-04-22T21:32:08.016Z,16.66
2023-04-22T21:34:38.258Z,16.67
2023-04-22T21:37:05.191Z,16.70
2023-04-22T21:39:31.876Z,16.70
2023-04-22T21:42:02.552Z,16.66
2023-04-22T21:44:29.656Z,16.69
2023-04-22T21:46:58.288Z,16.66
2023-04-22T21:49:25.268Z,16.59
2023-04-22T21:51:54.045Z,16.54
2023-04-22T21:54:23.037Z,16.35
2023-04-22T21:56:50.870Z,16.19
2023-04-22T21:59:17.507Z,16.08
2023-04-22T22:01:44.238Z,15.97
2023-04-22T22:04:14.797Z,15.81
2023-04-22T22:06:47.651Z,15.72
2023-04-22T22:09:19.235Z,15.64
2023-04-22T22:11:50.549Z,15.55
2023-04-22T22:14:17.237Z,15.42
2023-04-22T22:16:44.242Z,15.20
2023-04-22T22:19:14.536Z,14.99
2023-04-22T22:21:41.612Z,14.88
2023-04-22T22:24:10.613Z,14.86
2023-04-22T22:26:37.512Z,14.79
2023-04-22T22:29:06.791Z,14.70
2023-04-22T22:31:35.812Z,14.61
2023-04-22T22:34:03.334Z,14.49
2023-04-22T22:36:29.957Z,14.47
2023-04-22T22:38:56.656Z,14.48
2023-04-22T22:41:25.970Z,14.42
2023-04-22T22:43:52.708Z,14.23
2023-04-22T22:46:19.399Z,14.23
2023-04-22T22:48:48.498Z,14.21
2023-04-22T22:51:18.373Z,14.15
2023-04-22T22:53:45.390Z,14.03
2023-04-22T22:56:14.510Z,13.95
2023-04-22T22:58:41.251Z,13.92
2023-04-22T23:01:07.838Z,13.89
2023-04-22T23:03:39.520Z,13.85
2023-04-22T23:06:06.512Z,13.84
2023-04-22T23:08:33.516Z,13.82
2023-04-22T23:11:02.635Z,13.81
2023-04-22T23:13:29.259Z,13.76
2023-04-22T23:15:58.529Z,13.79
2023-04-22T23:18:26.634Z,13.81
2023-04-22T23:20:53.403Z,13.77
2023-04-22T23:23:21.138Z,13.69
2023-04-22T23:25:47.995Z,13.62
2023-04-22T23:28:17.144Z,13.55
2023-04-22T23:30:44.264Z,13.51
2023-04-22T23:33:10.872Z,13.50
2023-04-22T23:35:37.508Z,13.48
2023-04-22T23:38:06.759Z,13.51
2023-04-22T23:40:37.172Z,13.55
2023-04-22T23:43:06.589Z,13.53
2023-04-22T23:45:33.264Z,13.47
2023-04-22T23:48:05.022Z,13.46
2023-04-22T23:50:34.192Z,13.46
2023-04-22T23:53:00.778Z,13.39
2023-04-22T23:55:28.050Z,13.40
2023-04-22T23:57:57.932Z,13.35
